sensor_id;sensor_type;location;lat;lon;timestamp;pressure;altitude;pressure_sealevel;temperature;humidity
63694;BME280;49839;51.798;10.954;2023-07-31T00:01:55;98612.31;;;17.45;nan
63694;BME280;49839;51.798;10.954;2023-07-31T00:04:24;98604.22;;;17.46;nan
63694;BME280;49839;51.798;10.954;2023-07-31T00:06:52;98598.16;;;17.44;nan
63694;BME280;49839;51.798;10.954;2023-07-31T00:09:20;98594.41;;;17.47;nan
63694;BME280;49839;51.798;10.954;2023-07-31T00:11:47;98583.44;;;17.50;nan
63694;BME280;49839;51.798;10.954;2023-07-31T00:14:15;98591.59;;;17.48;nan
63694;BME280;49839;51.798;10.954;2023-07-31T00:16:43;98591.72;;;17.47;nan
63694;BME280;49839;51.798;10.954;2023-07-31T00:19:10;98589.06;;;17.47;nan
63694;BME280;49839;51.798;10.954;2023-07-31T00:21:39;98597.63;;;17.41;nan
63694;BME280;49839;51.798;10.954;2023-07-31T00:24:07;98586.97;;;17.41;nan
63694;BME280;49839;51.798;10.954;2023-07-31T00:26:35;98586.13;;;17.40;nan
63694;BME280;49839;51.798;10.954;2023-07-31T00:29:03;98579.81;;;17.41;nan
63694;BME280;49839;51.798;10.954;2023-07-31T00:31:31;98569.16;;;17.41;nan
63694;BME280;49839;51.798;10.954;2023-07-31T00:33:58;98570.84;;;17.42;nan
63694;BME280;49839;51.798;10.954;2023-07-31T00:36:26;98566.19;;;17.25;nan
63694;BME280;49839;51.798;10.954;2023-07-31T00:38:55;98569.00;;;17.14;nan
63694;BME280;49839;51.798;10.954;2023-07-31T00:41:23;98560.44;;;17.00;nan
63694;BME280;49839;51.798;10.954;2023-07-31T00:43:51;98569.94;;;16.93;nan
63694;BME280;49839;51.798;10.954;2023-07-31T00:46:18;98550.63;;;16.82;nan
63694;BME280;49839;51.798;10.954;2023-07-31T00:48:47;98543.03;;;16.77;nan
63694;BME280;49839;51.798;10.954;2023-07-31T00:51:15;98537.41;;;16.70;nan
63694;BME280;49839;51.798;10.954;2023-07-31T00:53:43;98530.34;;;16.60;nan
63694;BME280;49839;51.798;10.954;2023-07-31T00:56:14;98525.28;;;16.47;nan
63694;BME280;49839;51.798;10.954;2023-07-31T00:58:41;98515.19;;;16.41;nan
63694;BME280;49839;51.798;10.954;2023-07-31T01:01:09;98505.50;;;16.30;nan
63694;BME280;49839;51.798;10.954;2023-07-31T01:03:37;98514.13;;;16.22;nan
63694;BME280;49839;51.798;10.954;2023-07-31T01:06:14;98498.59;;;16.18;nan
63694;BME280;49839;51.798;10.954;2023-07-31T01:08:48;98501.66;;;16.13;nan
63694;BME280;49839;51.798;10.954;2023-07-31T01:11:25;98493.78;;;16.02;nan
63694;BME280;49839;51.798;10.954;2023-07-31T01:13:54;98479.41;;;16.05;nan
63694;BME280;49839;51.798;10.954;2023-07-31T01:16:22;98487.63;;;16.02;nan
63694;BME280;49839;51.798;10.954;2023-07-31T01:18:50;98482.84;;;15.95;nan
63694;BME280;49839;51.798;10.954;2023-07-31T01:21:41;98485.63;;;15.94;nan
63694;BME280;49839;51.798;10.954;2023-07-31T01:24:21;98478.78;;;15.91;nan
63694;BME280;49839;51.798;10.954;2023-07-31T01:26:56;98486.44;;;15.85;nan
63694;BME280;49839;51.798;10.954;2023-07-31T01:29:32;98493.56;;;15.84;nan
63694;BME280;49839;51.798;10.954;2023-07-31T01:32:04;98491.84;;;15.83;nan
63694;BME280;49839;51.798;10.954;2023-07-31T01:34:34;98486.69;;;15.82;nan
63694;BME280;49839;51.798;10.954;2023-07-31T01:37:03;98484.69;;;15.74;nan
63694;BME280;49839;51.798;10.954;2023-07-31T01:39:31;98480.75;;;15.68;nan
63694;BME280;49839;51.798;10.954;2023-07-31T01:42:00;98491.13;;;15.72;nan
63694;BME280;49839;51.798;10.954;2023-07-31T01:44:28;98478.22;;;15.67;nan
63694;BME280;49839;51.798;10.954;2023-07-31T01:46:57;98474.78;;;15.55;nan
63694;BME280;49839;51.798;10.954;2023-07-31T01:49:26;98472.41;;;15.52;nan
63694;BME280;49839;51.798;10.954;2023-07-31T01:51:54;98478.09;;;15.48;nan
63694;BME280;49839;51.798;10.954;2023-07-31T01:54:22;98473.84;;;15.45;nan
63694;BME280;49839;51.798;10.954;2023-07-31T01:56:50;98467.59;;;15.46;nan
63694;BME280;49839;51.798;10.954;2023-07-31T01:59:19;98463.38;;;15.43;nan
63694;BME280;49839;51.798;10.954;2023-07-31T02:01:47;98461.97;;;15.39;nan
63694;BME280;49839;51.798;10.954;2023-07-31T02:04:15;98462.09;;;15.38;nan
63694;BME280;49839;51.798;10.954;2023-07-31T02:06:44;98458.72;;;15.36;nan
63694;BME280;49839;51.798;10.954;2023-07-31T02:09:11;98448.09;;;15.36;nan
63694;BME280;49839;51.798;10.954;2023-07-31T02:11:39;98457.59;;;15.38;nan
63694;BME280;49839;51.798;10.954;2023-07-31T02:14:07;98451.47;;;15.38;nan
63694;BME280;49839;51.798;10.954;2023-07-31T02:16:36;98447.97;;;15.37;nan
63694;BME280;49839;51.798;10.954;2023-07-31T02:19:04;98442.53;;;15.39;nan
63694;BME280;49839;51.798;10.954;2023-07-31T02:21:32;98445.16;;;15.39;nan
63694;BME280;49839;51.798;10.954;2023-07-31T02:23:59;98435.53;;;15.38;nan
63694;BME280;49839;51.798;10.954;2023-07-31T02:26:27;98435.66;;;15.36;nan
63694;BME280;49839;51.798;10.954;2023-07-31T02:28:55;98426.16;;;15.34;nan
63694;BME280;49839;51.798;10.954;2023-07-31T02:31:22;98430.50;;;15.35;nan
63694;BME280;49839;51.798;10.954;2023-07-31T02:33:51;98429.06;;;15.31;nan
63694;BME280;49839;51.798;10.954;2023-07-31T02:36:19;98425.56;;;15.30;nan
63694;BME280;49839;51.798;10.954;2023-07-31T02:38:47;98404.63;;;15.27;nan
63694;BME280;49839;51.798;10.954;2023-07-31T02:41:14;98408.34;;;15.25;nan
63694;BME280;49839;51.798;10.954;2023-07-31T02:43:42;98405.69;;;15.25;nan
63694;BME280;49839;51.798;10.954;2023-07-31T02:46:10;98406.69;;;15.24;nan
63694;BME280;49839;51.798;10.954;2023-07-31T02:48:38;98399.09;;;15.19;nan
63694;BME280;49839;51.798;10.954;2023-07-31T02:51:07;98401.88;;;15.17;nan
63694;BME280;49839;51.798;10.954;2023-07-31T02:53:34;98402.59;;;15.20;nan
63694;BME280;49839;51.798;10.954;2023-07-31T02:56:03;98405.00;;;15.23;nan
63694;BME280;49839;51.798;10.954;2023-07-31T02:58:30;98395.50;;;15.20;nan
63694;BME280;49839;51.798;10.954;2023-07-31T03:00:58;98396.91;;;15.24;nan
63694;BME280;49839;51.798;10.954;2023-07-31T03:03:26;98391.59;;;15.24;nan
63694;BME280;49839;51.798;10.954;2023-07-31T03:05:54;98385.59;;;15.22;nan
63694;BME280;49839;51.798;10.954;2023-07-31T03:08:23;98395.81;;;15.27;nan
63694;BME280;49839;51.798;10.954;2023-07-31T03:10:51;98388.78;;;15.26;nan
63694;BME280;49839;51.798;10.954;2023-07-31T03:13:18;98390.63;;;15.25;nan
63694;BME280;49839;51.798;10.954;2023-07-31T03:15:46;98380.13;;;15.24;nan
63694;BME280;49839;51.798;10.954;2023-07-31T03:18:14;98382.94;;;15.22;nan
63694;BME280;49839;51.798;10.954;2023-07-31T03:20:42;98388.22;;;15.22;nan
63694;BME280;49839;51.798;10.954;2023-07-31T03:23:10;98390.88;;;15.22;nan
63694;BME280;49839;51.798;10.954;2023-07-31T03:25:41;98390.56;;;15.15;nan
63694;BME280;49839;51.798;10.954;2023-07-31T03:28:09;98393.47;;;15.12;nan
63694;BME280;49839;51.798;10.954;2023-07-31T03:30:36;98383.00;;;15.11;nan
63694;BME280;49839;51.798;10.954;2023-07-31T03:33:05;98389.97;;;15.12;nan
63694;BME280;49839;51.798;10.954;2023-07-31T03:35:32;98386.25;;;15.14;nan
63694;BME280;49839;51.798;10.954;2023-07-31T03:38:00;98387.91;;;15.15;nan
63694;BME280;49839;51.798;10.954;2023-07-31T03:40:28;98386.81;;;15.18;nan
63694;BME280;49839;51.798;10.954;2023-07-31T03:42:57;98396.84;;;15.14;nan
63694;BME280;49839;51.798;10.954;2023-07-31T03:45:25;98390.72;;;15.14;nan
63694;BME280;49839;51.798;10.954;2023-07-31T03:47:53;98395.19;;;15.13;nan
63694;BME280;49839;51.798;10.954;2023-07-31T03:50:21;98386.34;;;15.13;nan
63694;BME280;49839;51.798;10.954;2023-07-31T03:52:48;98391.13;;;15.19;nan
63694;BME280;49839;51.798;10.954;2023-07-31T03:55:16;98390.88;;;15.22;nan
63694;BME280;49839;51.798;10.954;2023-07-31T03:57:44;98382.09;;;15.22;nan
63694;BME280;49839;51.798;10.954;2023-07-31T04:00:13;98386.03;;;15.27;nan
63694;BME280;49839;51.798;10.954;2023-07-31T04:02:41;98367.56;;;15.26;nan
63694;BME280;49839;51.798;10.954;2023-07-31T04:05:09;98376.25;;;15.28;nan
63694;BME280;49839;51.798;10.954;2023-07-31T04:07:37;98373.31;;;15.31;nan
63694;BME280;49839;51.798;10.954;2023-07-31T04:10:05;98382.84;;;15.33;nan
63694;BME280;49839;51.798;10.954;2023-07-31T04:12:34;98382.72;;;15.35;nan
63694;BME280;49839;51.798;10.954;2023-07-31T04:15:02;98380.75;;;15.37;nan
63694;BME280;49839;51.798;10.954;2023-07-31T04:17:31;98376.28;;;15.37;nan
63694;BME280;49839;51.798;10.954;2023-07-31T04:19:58;98379.78;;;15.38;nan
63694;BME280;49839;51.798;10.954;2023-07-31T04:22:27;98390.00;;;15.42;nan
63694;BME280;49839;51.798;10.954;2023-07-31T04:24:54;98384.44;;;15.45;nan
63694;BME280;49839;51.798;10.954;2023-07-31T04:27:22;98379.84;;;15.48;nan
63694;BME280;49839;51.798;10.954;2023-07-31T04:29:50;98375.38;;;15.48;nan
63694;BME280;49839;51.798;10.954;2023-07-31T04:32:18;98373.16;;;15.53;nan
63694;BME280;49839;51.798;10.954;2023-07-31T04:34:48;98380.34;;;15.62;nan
63694;BME280;49839;51.798;10.954;2023-07-31T04:37:15;98374.91;;;15.64;nan
63694;BME280;49839;51.798;10.954;2023-07-31T04:39:43;98378.41;;;15.64;nan
63694;BME280;49839;51.798;10.954;2023-07-31T04:42:11;98371.16;;;15.66;nan
63694;BME280;49839;51.798;10.954;2023-07-31T04:44:38;98373.53;;;15.69;nan
63694;BME280;49839;51.798;10.954;2023-07-31T04:47:06;98370.63;;;15.73;nan
63694;BME280;49839;51.798;10.954;2023-07-31T04:49:34;98373.84;;;15.76;nan
63694;BME280;49839;51.798;10.954;2023-07-31T04:52:04;98376.78;;;15.83;nan
63694;BME280;49839;51.798;10.954;2023-07-31T04:54:32;98386.44;;;15.84;nan
63694;BME280;49839;51.798;10.954;2023-07-31T04:56:59;98388.84;;;15.87;nan
63694;BME280;49839;51.798;10.954;2023-07-31T04:59:27;98388.97;;;15.85;nan
63694;BME280;49839;51.798;10.954;2023-07-31T05:01:55;98381.31;;;15.92;nan
63694;BME280;49839;51.798;10.954;2023-07-31T05:04:22;98387.31;;;15.94;nan
63694;BME280;49839;51.798;10.954;2023-07-31T05:06:50;98398.63;;;15.96;nan
63694;BME280;49839;51.798;10.954;2023-07-31T05:09:19;98397.41;;;16.00;nan
63694;BME280;49839;51.798;10.954;2023-07-31T05:11:47;98397.25;;;16.02;nan
63694;BME280;49839;51.798;10.954;2023-07-31T05:14:15;98398.00;;;16.04;nan
63694;BME280;49839;51.798;10.954;2023-07-31T05:16:42;98388.75;;;16.08;nan
63694;BME280;49839;51.798;10.954;2023-07-31T05:19:10;98399.13;;;16.11;nan
63694;BME280;49839;51.798;10.954;2023-07-31T05:21:38;98400.81;;;16.12;nan
63694;BME280;49839;51.798;10.954;2023-07-31T05:24:06;98394.34;;;16.14;nan
63694;BME280;49839;51.798;10.954;2023-07-31T05:26:35;98402.19;;;16.16;nan
63694;BME280;49839;51.798;10.954;2023-07-31T05:29:04;98395.78;;;16.18;nan
63694;BME280;49839;51.798;10.954;2023-07-31T05:31:32;98395.63;;;16.20;nan
63694;BME280;49839;51.798;10.954;2023-07-31T05:33:59;98408.09;;;16.29;nan
63694;BME280;49839;51.798;10.954;2023-07-31T05:36:27;98394.25;;;16.35;nan
63694;BME280;49839;51.798;10.954;2023-07-31T05:38:55;98405.03;;;16.34;nan
63694;BME280;49839;51.798;10.954;2023-07-31T05:41:23;98400.97;;;16.39;nan
63694;BME280;49839;51.798;10.954;2023-07-31T05:43:52;98397.63;;;16.47;nan
63694;BME280;49839;51.798;10.954;2023-07-31T05:46:19;98395.94;;;16.46;nan
63694;BME280;49839;51.798;10.954;2023-07-31T05:48:47;98382.41;;;16.49;nan
63694;BME280;49839;51.798;10.954;2023-07-31T05:51:15;98386.19;;;16.56;nan
63694;BME280;49839;51.798;10.954;2023-07-31T05:53:42;98385.72;;;16.61;nan
63694;BME280;49839;51.798;10.954;2023-07-31T05:56:10;98384.91;;;16.60;nan
63694;BME280;49839;51.798;10.954;2023-07-31T05:58:38;98394.84;;;16.58;nan
63694;BME280;49839;51.798;10.954;2023-07-31T06:01:07;98386.19;;;16.56;nan
63694;BME280;49839;51.798;10.954;2023-07-31T06:03:35;98384.19;;;16.48;nan
63694;BME280;49839;51.798;10.954;2023-07-31T06:06:03;98375.78;;;16.53;nan
63694;BME280;49839;51.798;10.954;2023-07-31T06:08:30;98376.53;;;16.55;nan
63694;BME280;49839;51.798;10.954;2023-07-31T06:10:58;98386.72;;;16.60;nan
63694;BME280;49839;51.798;10.954;2023-07-31T06:13:26;98386.72;;;16.69;nan
63694;BME280;49839;51.798;10.954;2023-07-31T06:15:54;98391.78;;;16.72;nan
63694;BME280;49839;51.798;10.954;2023-07-31T06:18:23;98398.13;;;16.81;nan
63694;BME280;49839;51.798;10.954;2023-07-31T06:20:50;98395.31;;;16.83;nan
63694;BME280;49839;51.798;10.954;2023-07-31T06:23:20;98397.25;;;16.90;nan
63694;BME280;49839;51.798;10.954;2023-07-31T06:25:48;98400.59;;;17.02;nan
63694;BME280;49839;51.798;10.954;2023-07-31T06:28:15;98401.56;;;17.11;nan
63694;BME280;49839;51.798;10.954;2023-07-31T06:30:43;98396.09;;;17.12;nan
63694;BME280;49839;51.798;10.954;2023-07-31T06:33:11;98395.94;;;17.23;nan
63694;BME280;49839;51.798;10.954;2023-07-31T06:35:40;98405.88;;;17.31;nan
63694;BME280;49839;51.798;10.954;2023-07-31T06:38:08;98413.84;;;17.41;nan
63694;BME280;49839;51.798;10.954;2023-07-31T06:40:35;98409.09;;;17.35;nan
63694;BME280;49839;51.798;10.954;2023-07-31T06:43:03;98414.56;;;17.33;nan
63694;BME280;49839;51.798;10.954;2023-07-31T06:45:34;98402.63;;;17.37;nan
63694;BME280;49839;51.798;10.954;2023-07-31T06:48:03;98405.28;;;17.37;nan
63694;BME280;49839;51.798;10.954;2023-07-31T06:50:31;98404.56;;;17.45;nan
63694;BME280;49839;51.798;10.954;2023-07-31T06:53:00;98394.50;;;17.39;nan
63694;BME280;49839;51.798;10.954;2023-07-31T06:55:29;98396.72;;;17.43;nan
63694;BME280;49839;51.798;10.954;2023-07-31T06:57:57;98388.22;;;17.40;nan
63694;BME280;49839;51.798;10.954;2023-07-31T07:00:24;98387.38;;;17.39;nan
63694;BME280;49839;51.798;10.954;2023-07-31T07:02:52;98380.75;;;17.43;nan
63694;BME280;49839;51.798;10.954;2023-07-31T07:05:20;98390.25;;;17.55;nan
63694;BME280;49839;51.798;10.954;2023-07-31T07:07:49;98388.66;;;17.63;nan
63694;BME280;49839;51.798;10.954;2023-07-31T07:10:19;98389.06;;;17.68;nan
63694;BME280;49839;51.798;10.954;2023-07-31T07:12:47;98377.03;;;17.73;nan
63694;BME280;49839;51.798;10.954;2023-07-31T07:15:15;98391.59;;;17.79;nan
63694;BME280;49839;51.798;10.954;2023-07-31T07:17:43;98391.38;;;17.90;nan
63694;BME280;49839;51.798;10.954;2023-07-31T07:20:11;98382.28;;;17.93;nan
63694;BME280;49839;51.798;10.954;2023-07-31T07:22:39;98378.69;;;18.02;nan
63694;BME280;49839;51.798;10.954;2023-07-31T07:25:09;98385.34;;;18.16;nan
63694;BME280;49839;51.798;10.954;2023-07-31T07:27:38;98373.88;;;18.33;nan
63694;BME280;49839;51.798;10.954;2023-07-31T07:30:06;98392.03;;;18.47;nan
63694;BME280;49839;51.798;10.954;2023-07-31T07:32:35;98382.19;;;18.48;nan
63694;BME280;49839;51.798;10.954;2023-07-31T07:35:04;98380.13;;;18.41;nan
63694;BME280;49839;51.798;10.954;2023-07-31T07:37:31;98380.75;;;18.35;nan
63694;BME280;49839;51.798;10.954;2023-07-31T07:40:00;98383.03;;;18.30;nan
63694;BME280;49839;51.798;10.954;2023-07-31T07:42:28;98385.78;;;18.38;nan
63694;BME280;49839;51.798;10.954;2023-07-31T07:44:57;98379.69;;;18.46;nan
63694;BME280;49839;51.798;10.954;2023-07-31T07:47:25;98374.28;;;18.56;nan
63694;BME280;49839;51.798;10.954;2023-07-31T07:49:54;98366.06;;;18.49;nan
63694;BME280;49839;51.798;10.954;2023-07-31T07:52:22;98368.25;;;18.54;nan
63694;BME280;49839;51.798;10.954;2023-07-31T07:54:50;98376.00;;;18.47;nan
63694;BME280;49839;51.798;10.954;2023-07-31T07:57:17;98371.84;;;18.45;nan
63694;BME280;49839;51.798;10.954;2023-07-31T07:59:46;98360.78;;;18.39;nan
63694;BME280;49839;51.798;10.954;2023-07-31T08:02:15;98370.56;;;18.49;nan
63694;BME280;49839;51.798;10.954;2023-07-31T08:04:42;98366.97;;;18.58;nan
63694;BME280;49839;51.798;10.954;2023-07-31T08:07:10;98364.59;;;18.73;nan
63694;BME280;49839;51.798;10.954;2023-07-31T08:09:38;98366.97;;;18.93;nan
63694;BME280;49839;51.798;10.954;2023-07-31T08:12:07;98353.34;;;19.05;nan
63694;BME280;49839;51.798;10.954;2023-07-31T08:14:34;98331.81;;;19.06;nan
63694;BME280;49839;51.798;10.954;2023-07-31T08:17:03;98354.72;;;19.09;nan
63694;BME280;49839;51.798;10.954;2023-07-31T08:19:32;98355.44;;;19.19;nan
63694;BME280;49839;51.798;10.954;2023-07-31T08:22:00;98339.53;;;19.09;nan
63694;BME280;49839;51.798;10.954;2023-07-31T08:24:28;98342.25;;;19.17;nan
63694;BME280;49839;51.798;10.954;2023-07-31T08:26:56;98331.19;;;19.12;nan
63694;BME280;49839;51.798;10.954;2023-07-31T08:29:24;98348.56;;;19.08;nan
63694;BME280;49839;51.798;10.954;2023-07-31T08:31:52;98354.59;;;19.18;nan
63694;BME280;49839;51.798;10.954;2023-07-31T08:34:20;98354.88;;;19.07;nan
63694;BME280;49839;51.798;10.954;2023-07-31T08:36:49;98345.50;;;19.03;nan
63694;BME280;49839;51.798;10.954;2023-07-31T08:39:16;98357.66;;;18.98;nan
63694;BME280;49839;51.798;10.954;2023-07-31T08:41:44;98352.41;;;18.88;nan
63694;BME280;49839;51.798;10.954;2023-07-31T08:44:12;98362.81;;;18.99;nan
63694;BME280;49839;51.798;10.954;2023-07-31T08:46:41;98353.84;;;19.00;nan
63694;BME280;49839;51.798;10.954;2023-07-31T08:49:10;98353.13;;;18.98;nan
63694;BME280;49839;51.798;10.954;2023-07-31T08:51:39;98349.78;;;18.96;nan
63694;BME280;49839;51.798;10.954;2023-07-31T08:54:09;98356.28;;;18.93;nan
63694;BME280;49839;51.798;10.954;2023-07-31T08:56:37;98349.25;;;18.92;nan
63694;BME280;49839;51.798;10.954;2023-07-31T08:59:07;98356.69;;;18.81;nan
63694;BME280;49839;51.798;10.954;2023-07-31T09:01:43;98357.97;;;18.77;nan
63694;BME280;49839;51.798;10.954;2023-07-31T09:04:13;98373.00;;;18.78;nan
63694;BME280;49839;51.798;10.954;2023-07-31T09:06:43;98375.50;;;18.79;nan
63694;BME280;49839;51.798;10.954;2023-07-31T09:09:13;98377.00;;;19.00;nan
63694;BME280;49839;51.798;10.954;2023-07-31T09:11:41;98379.38;;;19.03;nan
63694;BME280;49839;51.798;10.954;2023-07-31T09:14:10;98374.19;;;19.01;nan
63694;BME280;49839;51.798;10.954;2023-07-31T09:16:51;98384.94;;;19.09;nan
63694;BME280;49839;51.798;10.954;2023-07-31T09:19:27;98375.19;;;19.00;nan
63694;BME280;49839;51.798;10.954;2023-07-31T09:21:54;98366.44;;;18.90;nan
63694;BME280;49839;51.798;10.954;2023-07-31T09:24:28;98362.94;;;18.89;nan
63694;BME280;49839;51.798;10.954;2023-07-31T09:26:57;98358.81;;;18.95;nan
63694;BME280;49839;51.798;10.954;2023-07-31T09:29:26;98352.09;;;19.17;nan
63694;BME280;49839;51.798;10.954;2023-07-31T09:31:54;98352.69;;;19.29;nan
63694;BME280;49839;51.798;10.954;2023-07-31T09:34:28;98347.91;;;19.40;nan
63694;BME280;49839;51.798;10.954;2023-07-31T09:36:58;98338.03;;;19.59;nan
63694;BME280;49839;51.798;10.954;2023-07-31T09:39:30;98334.84;;;19.63;nan
63694;BME280;49839;51.798;10.954;2023-07-31T09:41:58;98337.25;;;19.48;nan
63694;BME280;49839;51.798;10.954;2023-07-31T09:44:38;98331.22;;;19.64;nan
63694;BME280;49839;51.798;10.954;2023-07-31T09:47:07;98319.59;;;19.56;nan
63694;BME280;49839;51.798;10.954;2023-07-31T09:49:48;98303.50;;;19.73;nan
63694;BME280;49839;51.798;10.954;2023-07-31T09:52:15;98320.25;;;19.84;nan
63694;BME280;49839;51.798;10.954;2023-07-31T09:54:44;98309.28;;;20.03;nan
63694;BME280;49839;51.798;10.954;2023-07-31T09:57:12;98306.44;;;20.05;nan
63694;BME280;49839;51.798;10.954;2023-07-31T09:59:43;98295.59;;;20.14;nan
63694;BME280;49839;51.798;10.954;2023-07-31T10:02:15;98296.41;;;19.98;nan
63694;BME280;49839;51.798;10.954;2023-07-31T10:04:43;98287.00;;;19.94;nan
63694;BME280;49839;51.798;10.954;2023-07-31T10:07:13;98283.03;;;19.98;nan
63694;BME280;49839;51.798;10.954;2023-07-31T10:09:45;98297.50;;;19.80;nan
63694;BME280;49839;51.798;10.954;2023-07-31T10:12:16;98300.88;;;19.47;nan
63694;BME280;49839;51.798;10.954;2023-07-31T10:14:46;98284.94;;;19.38;nan
63694;BME280;49839;51.798;10.954;2023-07-31T10:17:15;98284.44;;;19.34;nan
63694;BME280;49839;51.798;10.954;2023-07-31T10:19:45;98288.63;;;19.37;nan
63694;BME280;49839;51.798;10.954;2023-07-31T10:22:14;98285.31;;;19.43;nan
63694;BME280;49839;51.798;10.954;2023-07-31T10:24:46;98286.94;;;19.36;nan
63694;BME280;49839;51.798;10.954;2023-07-31T10:27:14;98282.78;;;19.33;nan
63694;BME280;49839;51.798;10.954;2023-07-31T10:29:43;98290.44;;;19.36;nan
63694;BME280;49839;51.798;10.954;2023-07-31T10:32:11;98300.03;;;19.47;nan
63694;BME280;49839;51.798;10.954;2023-07-31T10:34:40;98298.38;;;19.54;nan
63694;BME280;49839;51.798;10.954;2023-07-31T10:37:21;98296.47;;;19.64;nan
63694;BME280;49839;51.798;10.954;2023-07-31T10:40:03;98301.66;;;19.74;nan
63694;BME280;49839;51.798;10.954;2023-07-31T10:42:34;98293.31;;;19.77;nan
63694;BME280;49839;51.798;10.954;2023-07-31T10:45:04;98289.31;;;19.73;nan
63694;BME280;49839;51.798;10.954;2023-07-31T10:47:37;98275.47;;;19.78;nan
63694;BME280;49839;51.798;10.954;2023-07-31T10:50:18;98290.31;;;19.80;nan
63694;BME280;49839;51.798;10.954;2023-07-31T10:52:47;98282.66;;;19.85;nan
63694;BME280;49839;51.798;10.954;2023-07-31T10:55:26;98277.50;;;19.92;nan
63694;BME280;49839;51.798;10.954;2023-07-31T10:57:56;98287.38;;;19.99;nan
63694;BME280;49839;51.798;10.954;2023-07-31T11:00:26;98272.81;;;20.02;nan
63694;BME280;49839;51.798;10.954;2023-07-31T11:03:04;98261.63;;;19.90;nan
63694;BME280;49839;51.798;10.954;2023-07-31T11:05:50;98264.47;;;19.97;nan
63694;BME280;49839;51.798;10.954;2023-07-31T11:08:21;98254.28;;;20.00;nan
63694;BME280;49839;51.798;10.954;2023-07-31T11:11:04;98265.31;;;19.97;nan
63694;BME280;49839;51.798;10.954;2023-07-31T11:13:34;98260.81;;;19.98;nan
63694;BME280;49839;51.798;10.954;2023-07-31T11:16:10;98253.44;;;20.00;nan
63694;BME280;49839;51.798;10.954;2023-07-31T11:18:40;98256.47;;;20.05;nan
63694;BME280;49839;51.798;10.954;2023-07-31T11:21:12;98249.75;;;20.09;nan
63694;BME280;49839;51.798;10.954;2023-07-31T11:23:40;98256.66;;;20.12;nan
63694;BME280;49839;51.798;10.954;2023-07-31T11:26:10;98253.97;;;20.20;nan
63694;BME280;49839;51.798;10.954;2023-07-31T11:28:38;98237.22;;;19.85;nan
63694;BME280;49839;51.798;10.954;2023-07-31T11:31:09;98250.59;;;19.85;nan
63694;BME280;49839;51.798;10.954;2023-07-31T11:33:37;98232.03;;;19.84;nan
63694;BME280;49839;51.798;10.954;2023-07-31T11:36:05;98226.16;;;19.80;nan
63694;BME280;49839;51.798;10.954;2023-07-31T11:38:34;98222.13;;;19.76;nan
63694;BME280;49839;51.798;10.954;2023-07-31T11:41:04;98221.31;;;19.75;nan
63694;BME280;49839;51.798;10.954;2023-07-31T11:43:34;98213.13;;;19.77;nan
63694;BME280;49839;51.798;10.954;2023-07-31T11:46:03;98220.66;;;19.73;nan
63694;BME280;49839;51.798;10.954;2023-07-31T11:48:39;98224.13;;;19.66;nan
63694;BME280;49839;51.798;10.954;2023-07-31T11:51:09;98223.81;;;19.77;nan
63694;BME280;49839;51.798;10.954;2023-07-31T11:53:41;98211.31;;;19.86;nan
63694;BME280;49839;51.798;10.954;2023-07-31T11:56:13;98232.53;;;19.95;nan
63694;BME280;49839;51.798;10.954;2023-07-31T11:58:43;98219.53;;;20.17;nan
63694;BME280;49839;51.798;10.954;2023-07-31T12:01:14;98220.53;;;20.40;nan
63694;BME280;49839;51.798;10.954;2023-07-31T12:03:44;98213.84;;;20.61;nan
63694;BME280;49839;51.798;10.954;2023-07-31T12:06:12;98214.53;;;20.63;nan
63694;BME280;49839;51.798;10.954;2023-07-31T12:08:43;98213.66;;;20.78;nan
63694;BME280;49839;51.798;10.954;2023-07-31T12:11:11;98204.25;;;20.91;nan
63694;BME280;49839;51.798;10.954;2023-07-31T12:13:40;98215.97;;;20.90;nan
63694;BME280;49839;51.798;10.954;2023-07-31T12:16:11;98216.28;;;21.03;nan
63694;BME280;49839;51.798;10.954;2023-07-31T12:18:39;98225.75;;;21.30;nan
63694;BME280;49839;51.798;10.954;2023-07-31T12:21:09;98204.91;;;21.48;nan
63694;BME280;49839;51.798;10.954;2023-07-31T12:23:38;98211.47;;;22.00;nan
63694;BME280;49839;51.798;10.954;2023-07-31T12:26:10;98207.88;;;22.53;nan
63694;BME280;49839;51.798;10.954;2023-07-31T12:28:43;98189.63;;;22.86;nan
63694;BME280;49839;51.798;10.954;2023-07-31T12:31:14;98185.91;;;23.02;nan
63694;BME280;49839;51.798;10.954;2023-07-31T12:33:47;98184.44;;;23.14;nan
63694;BME280;49839;51.798;10.954;2023-07-31T12:36:17;59032.25;;;-144.36;67.20
63694;BME280;49839;51.798;10.954;2023-07-31T12:38:47;59032.25;;;-144.36;67.20
63694;BME280;49839;51.798;10.954;2023-07-31T12:41:17;59032.25;;;-144.36;67.20
63694;BME280;49839;51.798;10.954;2023-07-31T12:43:45;98170.34;;;23.27;nan
63694;BME280;49839;51.798;10.954;2023-07-31T12:46:15;98165.06;;;23.19;nan
63694;BME280;49839;51.798;10.954;2023-07-31T12:48:43;98179.88;;;23.15;nan
63694;BME280;49839;51.798;10.954;2023-07-31T12:51:11;98185.50;;;23.35;nan
63694;BME280;49839;51.798;10.954;2023-07-31T12:53:39;98186.22;;;23.58;nan
63694;BME280;49839;51.798;10.954;2023-07-31T12:56:09;98191.25;;;23.61;nan
63694;BME280;49839;51.798;10.954;2023-07-31T12:58:36;98184.31;;;23.22;nan
63694;BME280;49839;51.798;10.954;2023-07-31T13:01:04;98166.91;;;22.74;nan
63694;BME280;49839;51.798;10.954;2023-07-31T13:03:34;98172.22;;;22.44;nan
63694;BME280;49839;51.798;10.954;2023-07-31T13:06:07;98149.81;;;22.37;nan
63694;BME280;49839;51.798;10.954;2023-07-31T13:08:35;98167.38;;;22.25;nan
63694;BME280;49839;51.798;10.954;2023-07-31T13:11:03;98165.09;;;22.14;nan
63694;BME280;49839;51.798;10.954;2023-07-31T13:13:31;98162.06;;;22.17;nan
63694;BME280;49839;51.798;10.954;2023-07-31T13:15:59;98163.97;;;22.31;nan
63694;BME280;49839;51.798;10.954;2023-07-31T13:18:26;98155.09;;;22.60;nan
63694;BME280;49839;51.798;10.954;2023-07-31T13:20:56;98151.97;;;22.71;nan